Time;durP1;ratioP1;P1;durP2;ratioP2;P2;SDS_P1;SDS_P2;PMS_P1;PMS_P2;Temp;Humidity;BMP_temperature;BMP_pressure;BME280_temperature;BME280_humidity;BME280_pressure;Samples;Min_cycle;Max_cycle;Signal;HPM_P1;HPM_P2
2022/04/29 00:00:05;;;;;;;;;;;;;;;;;;5061426;28;1322;-70
2022/04/29 00:02:31;;;;;;;;;;;;;;;;;;5061903;28;1218;-70
2022/04/29 00:04:56;;;;;;;;;;;;;;;;;;5061980;28;1250;-70
2022/04/29 00:07:21;;;;;;;;;;;;;;;;;;5061588;28;1361;-69
2022/04/29 00:09:47;;;;;;;;;;;;;;;;;;5059842;28;1397;-70
2022/04/29 00:12:12;;;;;;;;;;;;;;;;;;5061166;28;1314;-69
2022/04/29 00:14:38;;;;;;;;;;;;;;;;;;5060505;28;1262;-70
2022/04/29 00:17:04;;;;;;;;;;;;;;;;;;5061206;28;1902;-71
2022/04/29 00:19:29;;;;;;;;;;;;;;;;;;5061943;28;1224;-71
2022/04/29 00:21:55;;;;;;;;;;;;;;;;;;5061286;28;1353;-71
2022/04/29 00:24:20;;;;;;;;;;;;;;;;;;5061357;28;1200;-70
2022/04/29 00:26:46;;;;;;;;;;;;;;;;;;5060377;28;1349;-71
2022/04/29 00:29:11;;;;;;;;;;;;;;;;;;5060544;28;1252;-71
2022/04/29 00:31:36;;;;;;;;;;;;;;;;;;5061114;28;1361;-70
2022/04/29 00:34:02;;;;;;;;;;;;;;;;;;5061376;28;1309;-70
2022/04/29 00:36:27;;;;;;;;;;;;;;;;;;5060995;28;1888;-69
2022/04/29 00:38:52;;;;;;;;;;;;;;;;;;5060885;28;1605;-70
2022/04/29 00:41:18;;;;;;;;;;;;;;;;;;5060962;28;1310;-69
2022/04/29 00:43:43;;;;;;;;;;;;;;;;;;5061299;28;1262;-70
2022/04/29 00:46:08;;;;;;;;;;;;;;;;;;5061350;28;1243;-71
2022/04/29 00:48:34;;;;;;;;;;;;;;;;;;5060910;28;1325;-71
2022/04/29 00:50:59;;;;;;;;;;;;;;;;;;5061005;28;1577;-71
2022/04/29 00:53:26;;;;;;;;;;;;;;;;;;5061282;28;1096;-73
2022/04/29 00:55:53;;;;;;;;;;;;;;;;;;5059752;28;1252;-72
2022/04/29 00:58:20;;;;;;;;;;;;;;;;;;5059196;28;1279;-72
2022/04/29 01:00:46;;;;;;;;;;;;;;;;;;5062548;28;1306;-72
2022/04/29 01:03:12;;;;;;;;;;;;;;;;;;5059850;28;1278;-72
2022/04/29 01:05:39;;;;;;;;;;;;;;;;;;5059846;28;1191;-70
2022/04/29 01:08:04;;;;;;;;;;;;;;;;;;5060518;28;1263;-70
2022/04/29 01:10:29;;;;;;;;;;;;;;;;;;5059587;28;1148;-70
2022/04/29 01:12:59;;;;;;;;;;;;;;;;;;5060896;28;1211;-70
2022/04/29 01:15:24;;;;;;;;;;;;;;;;;;5060697;28;1290;-70
2022/04/29 01:17:51;;;;;;;;;;;;;;;;;;5059987;28;1984;-70
2022/04/29 01:20:17;;;;;;;;;;;;;;;;;;5060768;28;1420;-70
2022/04/29 01:22:43;;;;;;;;;;;;;;;;;;5060914;28;1350;-70
2022/04/29 01:25:08;;;;;;;;;;;;;;;;;;5059585;28;1416;-70
2022/04/29 01:27:34;;;;;;;;;;;;;;;;;;5060436;28;1350;-71
2022/04/29 01:30:09;;;;;;;;;;;;;;;;;;5061864;28;1309;-70
2022/04/29 01:32:35;;;;;;;;;;;;;;;;;;5060069;28;1231;-71
2022/04/29 01:35:00;;;;;;;;;;;;;;;;;;5060500;28;1558;-71
2022/04/29 01:37:25;;;;;;;;;;;;;;;;;;5060228;28;1926;-71
2022/04/29 01:39:51;;;;;;;;;;;;;;;;;;5060175;28;1573;-71
2022/04/29 01:42:16;;;;;;;;;;;;;;;;;;5060639;28;1262;-71
2022/04/29 01:44:41;;;;;;;;;;;;;;;;;;5060367;28;1291;-71
2022/04/29 01:47:06;;;;;;;;;;;;;;;;;;5060529;28;1267;-71
2022/04/29 01:49:32;;;;;;;;;;;;;;;;;;5060053;28;1342;-71
2022/04/29 01:51:57;;;;;;;;;;;;;;;;;;5057501;28;1369;-71
2022/04/29 01:54:22;;;;;;;;;;;;;;;;;;5060500;28;1338;-70
2022/04/29 01:56:49;;;;;;;;;;;;;;;;;;5056518;28;1886;-70
2022/04/29 01:59:15;;;;;;;;;;;;;;;;;;5060517;28;1342;-70
2022/04/29 02:01:40;;;;;;;;;;;;;;;;;;5060109;28;1230;-71
2022/04/29 02:04:05;;;;;;;;;;;;;;;;;;5060273;28;1373;-71
2022/04/29 02:06:30;;;;;;;;;;;;;;;;;;5058638;28;1337;-70
2022/04/29 02:08:56;;;;;;;;;;;;;;;;;;5060057;28;1263;-70
2022/04/29 02:11:21;;;;;;;;;;;;;;;;;;5059559;28;1358;-70
2022/04/29 02:13:47;;;;;;;;;;;;;;;;;;5059579;28;1310;-71
2022/04/29 02:16:13;;;;;;;;;;;;;;;;;;5059912;28;1969;-71
2022/04/29 02:18:38;;;;;;;;;;;;;;;;;;5059495;28;1260;-70
2022/04/29 02:21:04;;;;;;;;;;;;;;;;;;5059913;28;1322;-70
2022/04/29 02:23:29;;;;;;;;;;;;;;;;;;5059519;28;1321;-71
2022/04/29 02:25:55;;;;;;;;;;;;;;;;;;5059949;28;1317;-71
2022/04/29 02:28:21;;;;;;;;;;;;;;;;;;5059740;28;1335;-70
2022/04/29 02:30:47;;;;;;;;;;;;;;;;;;5059639;28;1335;-71
2022/04/29 02:33:12;;;;;;;;;;;;;;;;;;5058449;28;1183;-71
2022/04/29 02:35:37;;;;;;;;;;;;;;;;;;5058119;28;1313;-71
2022/04/29 02:38:02;;;;;;;;;;;;;;;;;;5059175;28;1894;-71
2022/04/29 02:40:28;;;;;;;;;;;;;;;;;;5059725;28;1239;-71
2022/04/29 02:42:53;;;;;;;;;;;;;;;;;;5059927;28;1278;-71
2022/04/29 02:45:18;;;;;;;;;;;;;;;;;;5059510;28;1235;-71
2022/04/29 02:47:43;;;;;;;;;;;;;;;;;;5059329;28;1342;-71
2022/04/29 02:50:09;;;;;;;;;;;;;;;;;;5059442;28;1286;-71
2022/04/29 02:52:34;;;;;;;;;;;;;;;;;;5059638;28;1255;-71
2022/04/29 02:54:59;;;;;;;;;;;;;;;;;;5059390;28;1554;-71
2022/04/29 02:57:24;;;;;;;;;;;;;;;;;;5059633;28;1894;-71
2022/04/29 02:59:49;;;;;;;;;;;;;;;;;;5059562;28;1321;-72
2022/04/29 03:02:15;;;;;;;;;;;;;;;;;;5059673;28;1333;-72
2022/04/29 03:04:40;;;;;;;;;;;;;;;;;;5059772;28;1219;-72
2022/04/29 03:07:05;;;;;;;;;;;;;;;;;;5057955;28;1278;-72
2022/04/29 03:09:31;;;;;;;;;;;;;;;;;;5058773;28;1343;-72
2022/04/29 03:11:56;;;;;;;;;;;;;;;;;;5059485;28;1417;-72
2022/04/29 03:14:22;;;;;;;;;;;;;;;;;;5056747;28;1333;-72
2022/04/29 03:16:47;;;;;;;;;;;;;;;;;;5059088;28;1906;-72
2022/04/29 03:19:12;;;;;;;;;;;;;;;;;;5058437;28;1350;-73
2022/04/29 03:21:38;;;;;;;;;;;;;;;;;;5059166;28;1243;-73
2022/04/29 03:24:03;;;;;;;;;;;;;;;;;;5059299;28;1326;-72
2022/04/29 03:26:29;;;;;;;;;;;;;;;;;;5059915;28;1302;-73
2022/04/29 03:28:54;;;;;;;;;;;;;;;;;;5062538;28;1321;-73
2022/04/29 03:31:19;;;;;;;;;;;;;;;;;;5062709;28;1235;-73
2022/04/29 03:33:45;;;;;;;;;;;;;;;;;;5061815;28;1326;-73
2022/04/29 03:36:10;;;;;;;;;;;;;;;;;;5062618;28;1959;-73
2022/04/29 03:38:36;;;;;;;;;;;;;;;;;;5062698;28;1330;-72
2022/04/29 03:41:01;;;;;;;;;;;;;;;;;;5062895;28;1234;-73
2022/04/29 03:43:27;;;;;;;;;;;;;;;;;;5062637;28;1204;-72
2022/04/29 03:45:53;;;;;;;;;;;;;;;;;;5062346;28;1168;-73
2022/04/29 03:48:18;;;;;;;;;;;;;;;;;;5062114;28;1385;-73
2022/04/29 03:50:43;;;;;;;;;;;;;;;;;;5062216;28;1263;-73
2022/04/29 03:53:08;;;;;;;;;;;;;;;;;;5062650;28;1275;-72
2022/04/29 03:55:34;;;;;;;;;;;;;;;;;;5062002;28;1347;-72
2022/04/29 03:58:01;;;;;;;;;;;;;;;;;;5061557;28;1890;-73
2022/04/29 04:00:28;;;;;;;;;;;;;;;;;;5062526;28;1413;-73
2022/04/29 04:02:53;;;;;;;;;;;;;;;;;;5062142;28;1306;-72
2022/04/29 04:05:19;;;;;;;;;;;;;;;;;;5061641;28;1505;-72
2022/04/29 04:07:45;;;;;;;;;;;;;;;;;;5061154;28;1699;-71
2022/04/29 04:10:10;;;;;;;;;;;;;;;;;;5062679;28;1298;-71
2022/04/29 04:12:39;;;;;;;;;;;;;;;;;;5061883;28;1263;-70
2022/04/29 04:15:05;;;;;;;;;;;;;;;;;;5062059;28;1315;-70
2022/04/29 04:17:31;;;;;;;;;;;;;;;;;;5061268;28;1902;-70
2022/04/29 04:19:56;;;;;;;;;;;;;;;;;;5061710;28;1198;-70
2022/04/29 04:22:21;;;;;;;;;;;;;;;;;;5061958;28;1294;-71
2022/04/29 04:24:46;;;;;;;;;;;;;;;;;;5061708;28;1310;-71
2022/04/29 04:27:12;;;;;;;;;;;;;;;;;;5061834;28;1270;-71
2022/04/29 04:29:37;;;;;;;;;;;;;;;;;;5061095;28;1263;-71
2022/04/29 04:32:02;;;;;;;;;;;;;;;;;;5061694;28;1278;-71
2022/04/29 04:37:11;;;;;;;;;;;;;;;;;;5059949;28;1890;-71
2022/04/29 04:39:36;;;;;;;;;;;;;;;;;;5061803;28;1349;-70
2022/04/29 04:42:02;;;;;;;;;;;;;;;;;;5061677;28;1297;-71
2022/04/29 04:44:27;;;;;;;;;;;;;;;;;;5061721;28;1354;-71
2022/04/29 04:46:52;;;;;;;;;;;;;;;;;;5061891;28;1326;-70
2022/04/29 04:49:17;;;;;;;;;;;;;;;;;;5061372;28;1388;-71
2022/04/29 04:51:42;;;;;;;;;;;;;;;;;;5060963;28;1325;-71
2022/04/29 04:54:08;;;;;;;;;;;;;;;;;;5061264;28;1207;-70
2022/04/29 04:56:33;;;;;;;;;;;;;;;;;;5061262;28;1914;-70
2022/04/29 04:58:58;;;;;;;;;;;;;;;;;;5061166;28;1254;-69
2022/04/29 05:01:23;;;;;;;;;;;;;;;;;;5060957;28;1145;-69
2022/04/29 05:03:49;;;;;;;;;;;;;;;;;;5059609;28;1262;-70
2022/04/29 05:06:14;;;;;;;;;;;;;;;;;;5060964;28;1269;-70
2022/04/29 05:08:39;;;;;;;;;;;;;;;;;;5060811;28;1394;-70
2022/04/29 05:11:04;;;;;;;;;;;;;;;;;;5060707;28;1317;-70
2022/04/29 05:13:29;;;;;;;;;;;;;;;;;;5061113;28;1251;-70
2022/04/29 05:15:55;;;;;;;;;;;;;;;;;;5060659;28;1088;-70
2022/04/29 05:18:21;;;;;;;;;;;;;;;;;;5060257;28;1910;-69
2022/04/29 05:20:46;;;;;;;;;;;;;;;;;;5060018;28;1262;-70
2022/04/29 05:23:11;;;;;;;;;;;;;;;;;;5061030;28;1191;-70
2022/04/29 05:25:36;;;;;;;;;;;;;;;;;;5061053;28;1333;-70
2022/04/29 05:28:02;;;;;;;;;;;;;;;;;;5060262;28;1267;-71
2022/04/29 05:30:27;;;;;;;;;;;;;;;;;;5060648;28;1362;-72
2022/04/29 05:32:53;;;;;;;;;;;;;;;;;;5060565;28;1271;-72
2022/04/29 05:35:18;;;;;;;;;;;;;;;;;;5059333;28;1425;-72
2022/04/29 05:37:43;;;;;;;;;;;;;;;;;;5060098;28;1955;-72
2022/04/29 05:42:53;;;;;;;;;;;;;;;;;;5060256;28;1231;-71
2022/04/29 05:45:18;;;;;;;;;;;;;;;;;;5059146;28;1275;-71
2022/04/29 05:47:43;;;;;;;;;;;;;;;;;;5060140;28;1256;-72
2022/04/29 05:50:08;;;;;;;;;;;;;;;;;;5058188;28;1408;-72
2022/04/29 05:52:33;;;;;;;;;;;;;;;;;;5060211;28;1235;-71
2022/04/29 05:54:59;;;;;;;;;;;;;;;;;;5060539;28;1255;-72
2022/04/29 05:57:24;;;;;;;;;;;;;;;;;;5060031;28;1893;-72
2022/04/29 05:59:50;;;;;;;;;;;;;;;;;;5060111;28;1294;-71
2022/04/29 06:02:15;;;;;;;;;;;;;;;;;;5060203;28;1318;-71
2022/04/29 06:04:40;;;;;;;;;;;;;;;;;;5060205;28;1397;-70
2022/04/29 06:07:05;;;;;;;;;;;;;;;;;;5060120;28;1255;-71
2022/04/29 06:09:30;;;;;;;;;;;;;;;;;;5059645;28;1256;-71
2022/04/29 06:11:56;;;;;;;;;;;;;;;;;;5059813;28;1271;-71
2022/04/29 06:14:21;;;;;;;;;;;;;;;;;;5060175;28;1258;-71
2022/04/29 06:16:46;;;;;;;;;;;;;;;;;;5060334;28;1967;-71
2022/04/29 06:19:12;;;;;;;;;;;;;;;;;;5059625;28;1343;-71
2022/04/29 06:21:38;;;;;;;;;;;;;;;;;;5060408;28;1345;-71
2022/04/29 06:24:04;;;;;;;;;;;;;;;;;;5059534;28;1286;-71
2022/04/29 06:26:29;;;;;;;;;;;;;;;;;;5059698;28;1228;-71
2022/04/29 06:28:54;;;;;;;;;;;;;;;;;;5059142;28;1426;-72
2022/04/29 06:31:20;;;;;;;;;;;;;;;;;;5059899;28;1309;-72
2022/04/29 06:33:45;;;;;;;;;;;;;;;;;;5059639;28;1262;-73
2022/04/29 06:36:10;;;;;;;;;;;;;;;;;;5060138;28;1894;-72
2022/04/29 06:38:36;;;;;;;;;;;;;;;;;;5059243;28;1331;-72
2022/04/29 06:41:01;;;;;;;;;;;;;;;;;;5060011;28;1246;-72
2022/04/29 06:43:28;;;;;;;;;;;;;;;;;;5059462;28;1259;-72
2022/04/29 06:45:53;;;;;;;;;;;;;;;;;;5060159;28;1243;-72
2022/04/29 06:48:18;;;;;;;;;;;;;;;;;;5057754;28;1322;-72
2022/04/29 06:50:43;;;;;;;;;;;;;;;;;;5060145;28;1318;-72
2022/04/29 06:53:09;;;;;;;;;;;;;;;;;;5059709;28;1168;-72
2022/04/29 06:55:37;;;;;;;;;;;;;;;;;;5059824;28;1263;-73
2022/04/29 06:58:02;;;;;;;;;;;;;;;;;;5059336;28;1893;-72
2022/04/29 07:00:28;;;;;;;;;;;;;;;;;;5059768;28;1199;-71
2022/04/29 07:02:54;;;;;;;;;;;;;;;;;;5062615;28;1620;-70
2022/04/29 07:05:19;;;;;;;;;;;;;;;;;;5062918;28;1235;-71
2022/04/29 07:07:49;;;;;;;;;;;;;;;;;;5062764;28;1362;-69
2022/04/29 07:10:15;;;;;;;;;;;;;;;;;;5062566;28;1306;-71
2022/04/29 07:12:41;;;;;;;;;;;;;;;;;;5062902;28;1298;-71
2022/04/29 07:15:07;;;;;;;;;;;;;;;;;;5062863;28;1286;-70
2022/04/29 07:17:32;;;;;;;;;;;;;;;;;;5062360;28;1955;-71
2022/04/29 07:19:58;;;;;;;;;;;;;;;;;;5062880;28;1424;-71
2022/04/29 07:22:23;;;;;;;;;;;;;;;;;;5062378;28;1298;-70
2022/04/29 07:24:49;;;;;;;;;;;;;;;;;;5062693;28;1247;-70
2022/04/29 07:27:14;;;;;;;;;;;;;;;;;;5061420;28;1234;-69
2022/04/29 07:29:39;;;;;;;;;;;;;;;;;;5062209;28;1315;-70
2022/04/29 07:32:04;;;;;;;;;;;;;;;;;;5062499;28;1455;-71
2022/04/29 07:42:41;;;;;;;;;;;;;;;;;;5062251;28;1141;-70
2022/04/29 07:45:07;;;;;;;;;;;;;;;;;;5062193;28;1250;-72
2022/04/29 07:47:32;;;;;;;;;;;;;;;;;;5061662;28;1372;-66
2022/04/29 07:49:57;;;;;;;;;;;;;;;;;;5062013;28;1432;-66
2022/04/29 07:52:24;;;;;;;;;;;;;;;;;;5061939;28;1255;-69
2022/04/29 07:54:49;;;;;;;;;;;;;;;;;;5060163;28;1510;-69
2022/04/29 07:57:14;;;;;;;;;;;;;;;;;;5062170;28;1893;-70
2022/04/29 07:59:39;;;;;;;;;;;;;;;;;;5062029;28;1321;-69
2022/04/29 08:02:06;;;;;;;;;;;;;;;;;;5062662;28;1293;-70
2022/04/29 08:04:32;;;;;;;;;;;;;;;;;;5062657;28;1346;-71
2022/04/29 08:06:57;;;;;;;;;;;;;;;;;;5062403;28;1432;-70
2022/04/29 08:09:22;;;;;;;;;;;;;;;;;;5063172;28;1251;-71
2022/04/29 08:11:47;;;;;;;;;;;;;;;;;;5059627;28;1216;-70
2022/04/29 08:14:12;;;;;;;;;;;;;;;;;;5062952;28;1251;-71
2022/04/29 08:16:38;;;;;;;;;;;;;;;;;;5062674;28;1959;-71
2022/04/29 08:19:04;;;;;;;;;;;;;;;;;;5062708;28;1302;-71
2022/04/29 08:21:29;;;;;;;;;;;;;;;;;;5062605;28;1380;-71
2022/04/29 08:23:54;;;;;;;;;;;;;;;;;;5062426;28;1310;-71
2022/04/29 08:26:19;;;;;;;;;;;;;;;;;;5060442;28;1243;-74
2022/04/29 08:28:45;;;;;;;;;;;;;;;;;;5060722;28;1294;-72
2022/04/29 08:31:10;;;;;;;;;;;;;;;;;;5063263;28;1426;-72
2022/04/29 08:33:35;;;;;;;;;;;;;;;;;;5062549;28;1299;-72
2022/04/29 08:36:01;;;;;;;;;;;;;;;;;;5061673;28;1285;-72
2022/04/29 08:38:26;;;;;;;;;;;;;;;;;;5062282;28;1898;-72
2022/04/29 08:40:52;;;;;;;;;;;;;;;;;;5061714;28;1266;-72
2022/04/29 08:43:19;;;;;;;;;;;;;;;;;;5063014;28;1318;-72
2022/04/29 08:45:44;;;;;;;;;;;;;;;;;;5062281;28;1247;-72
2022/04/29 08:48:10;;;;;;;;;;;;;;;;;;5060960;28;1636;-73
2022/04/29 08:50:35;;;;;;;;;;;;;;;;;;5061341;28;1365;-75
2022/04/29 08:53:01;;;;;;;;;;;;;;;;;;5061825;28;1286;-72
2022/04/29 09:01:03;;;;;;;;;;;;;;;;;;5063965;28;1377;-72
2022/04/29 09:03:29;;;;;;;;;;;;;;;;;;5060361;28;1216;-71
2022/04/29 09:05:54;;;;;;;;;;;;;;;;;;5062392;28;1251;-73
2022/04/29 09:08:21;;;;;;;;;;;;;;;;;;5061762;28;1432;-73
2022/04/29 09:10:50;;;;;;;;;;;;;;;;;;5061215;28;1322;-72
2022/04/29 09:13:17;;;;;;;;;;;;;;;;;;5062291;28;1263;-72
2022/04/29 09:15:50;;;;;;;;;;;;;;;;;;5059451;28;1306;-72
2022/04/29 09:18:34;;;;;;;;;;;;;;;;;;5058979;28;1962;-72
2022/04/29 09:21:07;;;;;;;;;;;;;;;;;;5061127;28;1375;-72
2022/04/29 09:23:35;;;;;;;;;;;;;;;;;;5060546;28;1342;-71
2022/04/29 09:26:05;;;;;;;;;;;;;;;;;;5057204;28;1549;-71
2022/04/29 09:28:30;;;;;;;;;;;;;;;;;;5059021;28;1358;-71
2022/04/29 09:30:56;;;;;;;;;;;;;;;;;;5060629;28;1313;-71
2022/04/29 09:33:22;;;;;;;;;;;;;;;;;;5060703;28;1293;-72
2022/04/29 09:35:48;;;;;;;;;;;;;;;;;;5059974;28;1760;-71
2022/04/29 09:41:00;;;;;;;;;;;;;;;;;;5061396;28;1040;-72
2022/04/29 09:43:40;;;;;;;;;;;;;;;;;;5063841;28;1243;-73
2022/04/29 09:46:12;;;;;;;;;;;;;;;;;;5060810;28;1288;-72
2022/04/29 09:48:53;;;;;;;;;;;;;;;;;;5059151;28;1263;-72
2022/04/29 09:51:37;;;;;;;;;;;;;;;;;;5060804;28;1270;-71
2022/04/29 09:54:08;;;;;;;;;;;;;;;;;;5059788;28;1302;-72
2022/04/29 09:56:34;;;;;;;;;;;;;;;;;;5060221;28;1893;-72
2022/04/29 09:58:59;;;;;;;;;;;;;;;;;;5060028;28;1243;-70
2022/04/29 10:01:24;;;;;;;;;;;;;;;;;;5060398;28;1141;-72
2022/04/29 10:03:49;;;;;;;;;;;;;;;;;;5060592;28;1727;-71
2022/04/29 10:06:16;;;;;;;;;;;;;;;;;;5060752;28;1262;-71
2022/04/29 10:08:41;;;;;;;;;;;;;;;;;;5060631;28;1425;-72
2022/04/29 10:11:06;;;;;;;;;;;;;;;;;;5061080;28;1250;-72
2022/04/29 10:13:32;;;;;;;;;;;;;;;;;;5061282;28;1226;-71
2022/04/29 10:15:57;;;;;;;;;;;;;;;;;;5061048;28;1072;-71
2022/04/29 10:21:15;;;;;;;;;;;;;;;;;;5060765;28;1179;-71
2022/04/29 10:23:41;;;;;;;;;;;;;;;;;;5060212;28;1201;-71
2022/04/29 10:26:06;;;;;;;;;;;;;;;;;;5060249;28;1310;-72
2022/04/29 10:28:32;;;;;;;;;;;;;;;;;;5060652;28;1259;-71
2022/04/29 10:31:06;;;;;;;;;;;;;;;;;;5060898;28;1357;-71
2022/04/29 10:33:31;;;;;;;;;;;;;;;;;;5060048;28;1311;-71
2022/04/29 10:36:04;;;;;;;;;;;;;;;;;;5062807;28;1322;-71
2022/04/29 10:38:31;;;;;;;;;;;;;;;;;;5061325;28;1964;-70
2022/04/29 10:41:15;;;;;;;;;;;;;;;;;;5064144;28;1227;-70
2022/04/29 10:43:45;;;;;;;;;;;;;;;;;;5062183;28;1436;-70
2022/04/29 10:46:10;;;;;;;;;;;;;;;;;;5063766;28;1200;-71
2022/04/29 10:48:36;;;;;;;;;;;;;;;;;;5063760;28;1306;-70
2022/04/29 10:51:11;;;;;;;;;;;;;;;;;;5062234;28;1424;-70
2022/04/29 10:53:38;;;;;;;;;;;;;;;;;;5063378;28;1132;-71
2022/04/29 10:56:21;;;;;;;;;;;;;;;;;;5064323;28;1314;-71
2022/04/29 10:58:47;;;;;;;;;;;;;;;;;;5062077;28;1326;-72
2022/04/29 11:01:25;;;;;;;;;;;;;;;;;;5062506;28;1358;-71
2022/04/29 11:03:50;;;;;;;;;;;;;;;;;;5062956;28;1214;-72
2022/04/29 11:06:16;;;;;;;;;;;;;;;;;;5060902;28;1282;-71
2022/04/29 11:08:42;;;;;;;;;;;;;;;;;;5061388;28;1407;-70
2022/04/29 11:11:07;;;;;;;;;;;;;;;;;;5062958;28;1334;-71
2022/04/29 11:13:37;;;;;;;;;;;;;;;;;;5062811;28;1726;-71
2022/04/29 11:16:10;;;;;;;;;;;;;;;;;;5062868;28;1180;-71
2022/04/29 11:18:36;;;;;;;;;;;;;;;;;;5062293;28;1893;-70
2022/04/29 11:24:40;;;;;;;;;;;;;;;;;;5062427;28;1290;-71
2022/04/29 11:26:49;;;;;;;;;;;;;;;;;;5060898;28;1677;-71
2022/04/29 11:29:16;;;;;;;;;;;;;;;;;;5062264;28;1279;-71
2022/04/29 11:31:41;;;;;;;;;;;;;;;;;;5062158;28;1163;-71
2022/04/29 11:34:07;;;;;;;;;;;;;;;;;;5061609;28;1384;-72
2022/04/29 11:36:33;;;;;;;;;;;;;;;;;;5062196;28;1947;-71
2022/04/29 11:38:58;;;;;;;;;;;;;;;;;;5061698;28;1338;-71
2022/04/29 11:41:29;;;;;;;;;;;;;;;;;;5061558;28;1562;-71
2022/04/29 11:43:55;;;;;;;;;;;;;;;;;;5061373;28;1543;-71
2022/04/29 11:46:20;;;;;;;;;;;;;;;;;;5060577;28;1260;-73
2022/04/29 11:48:58;;;;;;;;;;;;;;;;;;5060661;28;1363;-73
2022/04/29 11:51:24;;;;;;;;;;;;;;;;;;5061623;28;1214;-75
2022/04/29 11:53:53;;;;;;;;;;;;;;;;;;5061913;28;1286;-75
2022/04/29 11:56:18;;;;;;;;;;;;;;;;;;5061842;28;1285;-73
2022/04/29 11:58:44;;;;;;;;;;;;;;;;;;5060594;28;1902;-73
2022/04/29 12:01:09;;;;;;;;;;;;;;;;;;5062009;28;1255;-72
2022/04/29 12:03:34;;;;;;;;;;;;;;;;;;5061801;28;1318;-72
2022/04/29 12:05:59;;;;;;;;;;;;;;;;;;5061494;28;1306;-72
2022/04/29 12:08:24;;;;;;;;;;;;;;;;;;5061400;28;1277;-73
2022/04/29 12:10:50;;;;;;;;;;;;;;;;;;5061707;28;1239;-73
2022/04/29 12:13:18;;;;;;;;;;;;;;;;;;5062024;28;1262;-72
2022/04/29 12:15:43;;;;;;;;;;;;;;;;;;5061026;28;1320;-73
2022/04/29 12:18:10;;;;;;;;;;;;;;;;;;5061475;28;1897;-73
2022/04/29 12:20:35;;;;;;;;;;;;;;;;;;5060993;28;1211;-72
2022/04/29 12:23:16;;;;;;;;;;;;;;;;;;5060627;28;1285;-73
2022/04/29 12:25:45;;;;;;;;;;;;;;;;;;5061415;28;1368;-72
2022/04/29 12:28:15;;;;;;;;;;;;;;;;;;5058903;28;1521;-72
2022/04/29 12:36:10;;;;;;;;;;;;;;;;;;5062415;28;1068;-73
2022/04/29 12:38:37;;;;;;;;;;;;;;;;;;5061442;28;1894;-73
2022/04/29 12:41:22;;;;;;;;;;;;;;;;;;5061700;28;1243;-72
2022/04/29 12:43:48;;;;;;;;;;;;;;;;;;5060946;28;1340;-73
2022/04/29 12:46:17;;;;;;;;;;;;;;;;;;5061334;28;1255;-72
2022/04/29 12:48:49;;;;;;;;;;;;;;;;;;5061054;28;1322;-73
2022/04/29 12:51:28;;;;;;;;;;;;;;;;;;5060863;28;1240;-73
2022/04/29 12:53:54;;;;;;;;;;;;;;;;;;5060708;28;1283;-73
2022/04/29 12:56:23;;;;;;;;;;;;;;;;;;5061322;28;1223;-73
2022/04/29 12:58:49;;;;;;;;;;;;;;;;;;5059279;28;1330;-73
2022/04/29 13:01:14;;;;;;;;;;;;;;;;;;5058878;28;1311;-73
2022/04/29 13:03:39;;;;;;;;;;;;;;;;;;5060999;28;1172;-73
2022/04/29 13:06:04;;;;;;;;;;;;;;;;;;5061519;28;1242;-73
2022/04/29 13:08:30;;;;;;;;;;;;;;;;;;5060867;28;1267;-72
2022/04/29 13:10:56;;;;;;;;;;;;;;;;;;5060627;28;1434;-72
2022/04/29 13:13:21;;;;;;;;;;;;;;;;;;5061248;28;1251;-72
2022/04/29 13:15:47;;;;;;;;;;;;;;;;;;5060629;28;1251;-72
2022/04/29 13:18:13;;;;;;;;;;;;;;;;;;5057421;28;1906;-72
2022/04/29 13:20:41;;;;;;;;;;;;;;;;;;5060850;28;1251;-72
2022/04/29 13:23:06;;;;;;;;;;;;;;;;;;5060641;28;1322;-73
2022/04/29 13:25:35;;;;;;;;;;;;;;;;;;5060994;28;1337;-67
2022/04/29 13:28:00;;;;;;;;;;;;;;;;;;5059323;28;1361;-66
2022/04/29 13:30:25;;;;;;;;;;;;;;;;;;5059923;28;1342;-66
2022/04/29 13:32:52;;;;;;;;;;;;;;;;;;5059739;28;1231;-67
2022/04/29 13:35:17;;;;;;;;;;;;;;;;;;5060198;28;1424;-70
2022/04/29 13:37:42;;;;;;;;;;;;;;;;;;5060013;28;1965;-71
2022/04/29 13:40:08;;;;;;;;;;;;;;;;;;5060191;28;1247;-70
2022/04/29 13:42:34;;;;;;;;;;;;;;;;;;5061037;28;1266;-70
2022/04/29 13:45:01;;;;;;;;;;;;;;;;;;5060339;28;1290;-69
2022/04/29 13:47:27;;;;;;;;;;;;;;;;;;5060704;28;1342;-69
2022/04/29 13:49:52;;;;;;;;;;;;;;;;;;5060321;28;1283;-67
2022/04/29 13:55:01;;;;;;;;;;;;;;;;;;5059777;28;1291;-68
2022/04/29 13:57:27;;;;;;;;;;;;;;;;;;5060156;28;1953;-68
2022/04/29 13:59:52;;;;;;;;;;;;;;;;;;5058112;28;1483;-68
2022/04/29 14:02:17;;;;;;;;;;;;;;;;;;5059964;28;1402;-68
2022/04/29 14:04:42;;;;;;;;;;;;;;;;;;5059937;28;1349;-67
2022/04/29 14:07:07;;;;;;;;;;;;;;;;;;5058519;28;1284;-69
2022/04/29 14:09:33;;;;;;;;;;;;;;;;;;5059170;28;1275;-69
2022/04/29 14:11:58;;;;;;;;;;;;;;;;;;5059879;28;1266;-68
2022/04/29 14:14:24;;;;;;;;;;;;;;;;;;5059755;28;1314;-69
2022/04/29 14:16:52;;;;;;;;;;;;;;;;;;5060756;28;1964;-69
2022/04/29 14:19:17;;;;;;;;;;;;;;;;;;5059972;28;1369;-69
2022/04/29 14:21:42;;;;;;;;;;;;;;;;;;5059197;28;1291;-69
2022/04/29 14:24:08;;;;;;;;;;;;;;;;;;5057925;28;1349;-68
2022/04/29 14:26:35;;;;;;;;;;;;;;;;;;5059881;28;1206;-69
2022/04/29 14:29:01;;;;;;;;;;;;;;;;;;5059592;28;1298;-70
2022/04/29 14:31:27;;;;;;;;;;;;;;;;;;5059639;28;1322;-69
2022/04/29 14:33:52;;;;;;;;;;;;;;;;;;5059730;28;1306;-69
2022/04/29 14:36:19;;;;;;;;;;;;;;;;;;5056682;28;1267;-69
2022/04/29 14:38:45;;;;;;;;;;;;;;;;;;5059982;28;1894;-69
2022/04/29 14:41:10;;;;;;;;;;;;;;;;;;5059581;28;1275;-69
2022/04/29 14:43:35;;;;;;;;;;;;;;;;;;5059854;28;1232;-69
2022/04/29 14:46:00;;;;;;;;;;;;;;;;;;5059534;28;1256;-69
2022/04/29 14:48:25;;;;;;;;;;;;;;;;;;5059518;28;1259;-69
2022/04/29 14:50:53;;;;;;;;;;;;;;;;;;5059648;28;1275;-68
2022/04/29 14:53:18;;;;;;;;;;;;;;;;;;5057075;28;1152;-69
2022/04/29 14:55:43;;;;;;;;;;;;;;;;;;5059691;28;1302;-69
2022/04/29 14:58:08;;;;;;;;;;;;;;;;;;5058774;28;1966;-69
2022/04/29 15:00:34;;;;;;;;;;;;;;;;;;5057930;28;1482;-69
2022/04/29 15:02:59;;;;;;;;;;;;;;;;;;5057904;28;1504;-69
2022/04/29 15:05:24;;;;;;;;;;;;;;;;;;5059429;28;1282;-69
2022/04/29 15:07:50;;;;;;;;;;;;;;;;;;5059347;28;1283;-69
2022/04/29 15:15:50;;;;;;;;;;;;;;;;;;5059219;28;1107;-70
2022/04/29 15:18:19;;;;;;;;;;;;;;;;;;5058960;28;1979;-70
2022/04/29 15:20:45;;;;;;;;;;;;;;;;;;5059392;28;1251;-71
2022/04/29 15:23:10;;;;;;;;;;;;;;;;;;5060263;28;1649;-69
2022/04/29 15:25:36;;;;;;;;;;;;;;;;;;5063100;28;1188;-69
2022/04/29 15:28:02;;;;;;;;;;;;;;;;;;5062535;28;1342;-69
2022/04/29 15:30:39;;;;;;;;;;;;;;;;;;5062485;28;1514;-69
2022/04/29 15:33:05;;;;;;;;;;;;;;;;;;5061824;28;1243;-70
2022/04/29 15:35:30;;;;;;;;;;;;;;;;;;5062946;28;1235;-69
2022/04/29 15:37:56;;;;;;;;;;;;;;;;;;5062076;28;1893;-70
2022/04/29 15:40:21;;;;;;;;;;;;;;;;;;5063014;28;1371;-70
2022/04/29 15:42:46;;;;;;;;;;;;;;;;;;5062217;28;1436;-70
2022/04/29 15:45:11;;;;;;;;;;;;;;;;;;5062393;28;1366;-69
2022/04/29 15:47:36;;;;;;;;;;;;;;;;;;5062234;28;1440;-70
2022/04/29 15:50:02;;;;;;;;;;;;;;;;;;5062664;28;1234;-69
2022/04/29 15:52:27;;;;;;;;;;;;;;;;;;5062460;28;1413;-70
2022/04/29 15:54:52;;;;;;;;;;;;;;;;;;5062810;28;1345;-69
2022/04/29 15:57:17;;;;;;;;;;;;;;;;;;5062129;28;1960;-69
2022/04/29 15:59:43;;;;;;;;;;;;;;;;;;5061732;28;1314;-69
2022/04/29 16:02:08;;;;;;;;;;;;;;;;;;5065960;28;1290;-68
2022/04/29 16:04:33;;;;;;;;;;;;;;;;;;5065091;28;1312;-69
2022/04/29 16:06:58;;;;;;;;;;;;;;;;;;5061729;28;1259;-70
2022/04/29 16:09:25;;;;;;;;;;;;;;;;;;5061855;28;1251;-70
2022/04/29 16:11:50;;;;;;;;;;;;;;;;;;5061710;28;1341;-70
2022/04/29 16:14:15;;;;;;;;;;;;;;;;;;5061946;28;1199;-70
2022/04/29 16:16:41;;;;;;;;;;;;;;;;;;5061495;28;1960;-71
2022/04/29 16:21:50;;;;;;;;;;;;;;;;;;5061562;28;1243;-69
2022/04/29 16:26:59;;;;;;;;;;;;;;;;;;5061833;28;1219;-71
2022/04/29 16:29:25;;;;;;;;;;;;;;;;;;5061137;28;1291;-70
2022/04/29 16:31:54;;;;;;;;;;;;;;;;;;5064477;28;1306;-71
2022/04/29 16:34:19;;;;;;;;;;;;;;;;;;5059748;28;1239;-71
2022/04/29 16:36:45;;;;;;;;;;;;;;;;;;5062837;28;1952;-71
2022/04/29 16:39:10;;;;;;;;;;;;;;;;;;5061928;28;1354;-72
2022/04/29 16:41:35;;;;;;;;;;;;;;;;;;5061743;28;1501;-72
2022/04/29 16:44:00;;;;;;;;;;;;;;;;;;5060752;28;1419;-72
2022/04/29 16:46:25;;;;;;;;;;;;;;;;;;5060989;28;1321;-72
2022/04/29 16:48:51;;;;;;;;;;;;;;;;;;5060929;28;1302;-72
2022/04/29 16:51:16;;;;;;;;;;;;;;;;;;5060327;28;1421;-72
2022/04/29 16:53:42;;;;;;;;;;;;;;;;;;5060624;28;1302;-69
2022/04/29 16:56:07;;;;;;;;;;;;;;;;;;5060392;28;1321;-70
2022/04/29 16:58:42;;;;;;;;;;;;;;;;;;5060612;28;1968;-70
2022/04/29 17:01:21;;;;;;;;;;;;;;;;;;5059567;28;1334;-70
2022/04/29 17:03:47;;;;;;;;;;;;;;;;;;5059236;28;1254;-71
2022/04/29 17:06:12;;;;;;;;;;;;;;;;;;5060891;28;1448;-71
2022/04/29 17:08:38;;;;;;;;;;;;;;;;;;5060238;28;1372;-71
2022/04/29 17:11:03;;;;;;;;;;;;;;;;;;5059141;28;1380;-71
2022/04/29 17:13:29;;;;;;;;;;;;;;;;;;5060445;28;1330;-70
2022/04/29 17:15:54;;;;;;;;;;;;;;;;;;5060853;28;1228;-73
2022/04/29 17:18:20;;;;;;;;;;;;;;;;;;5059540;28;1957;-73
2022/04/29 17:20:45;;;;;;;;;;;;;;;;;;5060281;28;1437;-73
2022/04/29 17:23:11;;;;;;;;;;;;;;;;;;5060669;28;1258;-74
2022/04/29 17:25:36;;;;;;;;;;;;;;;;;;5059953;28;1346;-74
2022/04/29 17:28:01;;;;;;;;;;;;;;;;;;5060279;28;1282;-69
2022/04/29 17:30:27;;;;;;;;;;;;;;;;;;5059803;28;1528;-75
2022/04/29 17:32:53;;;;;;;;;;;;;;;;;;5059729;28;1321;-74
2022/04/29 17:35:19;;;;;;;;;;;;;;;;;;5057994;28;1238;-74
2022/04/29 17:37:44;;;;;;;;;;;;;;;;;;5059469;28;1890;-74
2022/04/29 17:42:54;;;;;;;;;;;;;;;;;;5060113;28;1342;-75
2022/04/29 17:45:20;;;;;;;;;;;;;;;;;;5059388;28;1239;-75